^^
Station Historical Data
Daily Summary for December 14, 2017 Units:  Both    English   Metric
« Previous Day
Next Day »
Daily Weekly Monthly Yearly Custom
  High: Low: Average:
Temperature: TemperatureF °F /  -17.8 °C 64.9 °F /  18.3 °C 78.2 °F /  25.7 °C
Dew Point: DewpointF °F /  -17.8 °C 8.4 °F /  -13.1 °C 24.4 °F /  -4.2 °C
Humidity: Humidity% 7% 16%
Wind Speed: WindSpeedMPHmph /  0km/h - 2.8mph /  4.5km/h
Wind Gust: WindSpeedGustMPHmph /  0km/h - -
Wind- - SSE
Pressure: PressureIn in /  0 hPa 29.60 in /  1002.3 hPa -
Precipitation: 0.00 in /  0 mm    
Historical Graphs
 
 
Tabular Data for December 14, 2017
Time Temperature Dew Point Pressure Wind Wind Speed Wind Gust Humidity Rainfall Rate (Hourly) solar Conditions
TemperatureF °F /  -17.8 °C DewpointF °F /  -17.8 °C PressureInin /  0hPa Calm     Humidity% HourlyPrecipInin /  0mm SolarRadiationWatts/m^2 W/m2 Conditions
00:07 66.7 °F /  19.3 °C 30.7 °F /  -0.7 °C 29.73in /  1006.7hPa Calm     26% 0.00in /  0mm 0.0 W/m2
00:13 66.4 °F /  19.1 °C 30.4 °F /  -0.9 °C 29.73in /  1006.7hPa Calm     26% 0.00in /  0mm 0.0 W/m2
00:18 66.0 °F /  18.9 °C 31.1 °F /  -0.5 °C 29.73in /  1006.7hPa Calm     27% 0.00in /  0mm 0.0 W/m2
00:23 65.8 °F /  18.8 °C 30.9 °F /  -0.6 °C 29.72in /  1006.3hPa Calm     27% 0.00in /  0mm 0.0 W/m2
00:28 65.7 °F /  18.7 °C 30.7 °F /  -0.7 °C 29.72in /  1006.3hPa Calm     27% 0.00in /  0mm 0.0 W/m2
00:33 65.7 °F /  18.7 °C 30.7 °F /  -0.7 °C 29.72in /  1006.3hPa Calm     27% 0.00in /  0mm 0.0 W/m2
00:38 65.5 °F /  18.6 °C 31.5 °F /  -0.3 °C 29.72in /  1006.3hPa Calm   1.0mph /  1.6km/h 28% 0.00in /  0mm 0.0 W/m2
00:43 65.5 °F /  18.6 °C 31.5 °F /  -0.3 °C 29.72in /  1006.3hPa Calm     28% 0.00in /  0mm 0.0 W/m2
00:49 65.5 °F /  18.6 °C 32.4 °F /  0.2 °C 29.72in /  1006.3hPa South 0.9mph /  1.4km/h 2.0mph /  3.2km/h 29% 0.00in /  0mm 0.0 W/m2
00:54 65.5 °F /  18.6 °C 32.4 °F /  0.2 °C 29.72in /  1006.3hPa Calm   4.0mph /  6.4km/h 29% 0.00in /  0mm 0.0 W/m2
00:59 65.8 °F /  18.8 °C 33.6 °F /  0.9 °C 29.72in /  1006.3hPa SSW 0.9mph /  1.4km/h 5.0mph /  8km/h 30% 0.00in /  0mm 0.0 W/m2
01:04 66.4 °F /  19.1 °C 34.0 °F /  1.1 °C 29.72in /  1006.3hPa South 2.0mph /  3.2km/h 5.0mph /  8km/h 30% 0.00in /  0mm 0.0 W/m2
01:09 66.9 °F /  19.4 °C 33.6 °F /  0.9 °C 29.72in /  1006.3hPa SSE 0.9mph /  1.4km/h 5.0mph /  8km/h 29% 0.00in /  0mm 0.0 W/m2
01:14 67.5 °F /  19.7 °C 33.3 °F /  0.7 °C 29.72in /  1006.3hPa SSE 2.9mph /  4.7km/h 8.0mph /  12.9km/h 28% 0.00in /  0mm 0.0 W/m2
01:24 68.2 °F /  20.1 °C 34.7 °F /  1.5 °C 29.72in /  1006.3hPa SSE 0.9mph /  1.4km/h 6.0mph /  9.7km/h 29% 0.00in /  0mm 0.0 W/m2
01:29 68.4 °F /  20.2 °C 34.9 °F /  1.6 °C 29.72in /  1006.3hPa SSW 2.9mph /  4.7km/h 11.0mph /  17.7km/h 29% 0.00in /  0mm 0.0 W/m2
01:34 68.4 °F /  20.2 °C 34.0 °F /  1.1 °C 29.71in /  1006hPa SE 4.0mph /  6.4km/h 9.0mph /  14.5km/h 28% 0.00in /  0mm 0.0 W/m2
01:45 68.5 °F /  20.3 °C 32.4 °F /  0.2 °C 29.71in /  1006hPa SW 4.0mph /  6.4km/h 4.0mph /  6.4km/h 26% 0.00in /  0mm 0.0 W/m2
01:50 68.7 °F /  20.4 °C 33.4 °F /  0.8 °C 29.71in /  1006hPa SSW 0.9mph /  1.4km/h 8.0mph /  12.9km/h 27% 0.00in /  0mm 0.0 W/m2
01:55 68.7 °F /  20.4 °C 32.4 °F /  0.2 °C 29.71in /  1006hPa SSE 6.9mph /  11.1km/h 8.0mph /  12.9km/h 26% 0.00in /  0mm 0.0 W/m2
02:00 68.7 °F /  20.4 °C 32.4 °F /  0.2 °C 29.71in /  1006hPa South 0.9mph /  1.4km/h 3.0mph /  4.8km/h 26% 0.00in /  0mm 0.0 W/m2
02:05 68.7 °F /  20.4 °C 33.4 °F /  0.8 °C 29.71in /  1006hPa SSW 2.0mph /  3.2km/h 4.0mph /  6.4km/h 27% 0.00in /  0mm 0.0 W/m2
02:10 68.7 °F /  20.4 °C 33.4 °F /  0.8 °C 29.71in /  1006hPa SW 4.0mph /  6.4km/h 7.0mph /  11.3km/h 27% 0.00in /  0mm 0.0 W/m2
02:15 68.5 °F /  20.3 °C 33.3 °F /  0.7 °C 29.71in /  1006hPa Calm   3.0mph /  4.8km/h 27% 0.00in /  0mm 0.0 W/m2
02:20 68.5 °F /  20.3 °C 33.3 °F /  0.7 °C 29.71in /  1006hPa SSW 6.0mph /  9.7km/h 7.0mph /  11.3km/h 27% 0.00in /  0mm 0.0 W/m2
02:25 68.5 °F /  20.3 °C 33.3 °F /  0.7 °C 29.70in /  1005.6hPa SSE 2.0mph /  3.2km/h 6.0mph /  9.7km/h 27% 0.00in /  0mm 0.0 W/m2
02:36 68.4 °F /  20.2 °C 34.0 °F /  1.1 °C 29.70in /  1005.6hPa WSW 4.9mph /  7.9km/h 7.0mph /  11.3km/h 28% 0.00in /  0mm 0.0 W/m2
02:42 68.4 °F /  20.2 °C 34.0 °F /  1.1 °C 29.70in /  1005.6hPa South 2.0mph /  3.2km/h 10.0mph /  16.1km/h 28% 0.00in /  0mm 0.0 W/m2
02:47 68.5 °F /  20.3 °C 34.2 °F /  1.2 °C 29.70in /  1005.6hPa SSW 4.0mph /  6.4km/h 6.0mph /  9.7km/h 28% 0.00in /  0mm 0.0 W/m2
02:52 68.5 °F /  20.3 °C 33.3 °F /  0.7 °C 29.70in /  1005.6hPa SSE 6.0mph /  9.7km/h 13.0mph /  20.9km/h 27% 0.00in /  0mm 0.0 W/m2
02:57 68.5 °F /  20.3 °C 34.2 °F /  1.2 °C 29.70in /  1005.6hPa SE 4.0mph /  6.4km/h 7.0mph /  11.3km/h 28% 0.00in /  0mm 0.0 W/m2
03:02 68.5 °F /  20.3 °C 34.2 °F /  1.2 °C 29.70in /  1005.6hPa South 4.0mph /  6.4km/h 7.0mph /  11.3km/h 28% 0.00in /  0mm 0.0 W/m2
03:08 68.5 °F /  20.3 °C 34.2 °F /  1.2 °C 29.70in /  1005.6hPa SE 0.9mph /  1.4km/h 5.0mph /  8km/h 28% 0.00in /  0mm 0.0 W/m2
03:14 68.4 °F /  20.2 °C 34.0 °F /  1.1 °C 29.70in /  1005.6hPa SE 4.0mph /  6.4km/h 7.0mph /  11.3km/h 28% 0.00in /  0mm 0.0 W/m2
03:19 68.4 °F /  20.2 °C 34.0 °F /  1.1 °C 29.70in /  1005.6hPa Calm   10.0mph /  16.1km/h 28% 0.00in /  0mm 0.0 W/m2
03:24 68.4 °F /  20.2 °C 34.0 °F /  1.1 °C 29.70in /  1005.6hPa WSW 0.9mph /  1.4km/h 8.0mph /  12.9km/h 28% 0.00in /  0mm 0.0 W/m2
03:29 68.4 °F /  20.2 °C 34.0 °F /  1.1 °C 29.70in /  1005.6hPa Calm   5.0mph /  8km/h 28% 0.00in /  0mm 0.0 W/m2
03:34 68.2 °F /  20.1 °C 33.8 °F /  1 °C 29.70in /  1005.6hPa SSE 4.9mph /  7.9km/h 8.0mph /  12.9km/h 28% 0.00in /  0mm 0.0 W/m2
03:39 68.2 °F /  20.1 °C 33.8 °F /  1 °C 29.70in /  1005.6hPa SSW 6.0mph /  9.7km/h 11.0mph /  17.7km/h 28% 0.00in /  0mm 0.0 W/m2
03:44 68.2 °F /  20.1 °C 33.8 °F /  1 °C 29.70in /  1005.6hPa NNE 0.9mph /  1.4km/h 6.0mph /  9.7km/h 28% 0.00in /  0mm 0.0 W/m2
03:49 68.0 °F /  20 °C 32.7 °F /  0.4 °C 29.70in /  1005.6hPa SSE 0.9mph /  1.4km/h 11.0mph /  17.7km/h 27% 0.00in /  0mm 0.0 W/m2
03:54 67.8 °F /  19.9 °C 33.4 °F /  0.8 °C 29.70in /  1005.6hPa SSE 6.9mph /  11.1km/h 14.0mph /  22.5km/h 28% 0.00in /  0mm 0.0 W/m2
03:59 67.8 °F /  19.9 °C 33.4 °F /  0.8 °C 29.70in /  1005.6hPa Calm   5.0mph /  8km/h 28% 0.00in /  0mm 0.0 W/m2
04:04 67.6 °F /  19.8 °C 34.2 °F /  1.2 °C 29.70in /  1005.6hPa SSW 6.0mph /  9.7km/h 6.0mph /  9.7km/h 29% 0.00in /  0mm 0.0 W/m2
04:09 67.5 °F /  19.7 °C 33.3 °F /  0.7 °C 29.70in /  1005.6hPa SSE 4.9mph /  7.9km/h 12.0mph /  19.3km/h 28% 0.00in /  0mm 0.0 W/m2
04:21 67.5 °F /  19.7 °C 33.3 °F /  0.7 °C 29.70in /  1005.6hPa Calm   5.0mph /  8km/h 28% 0.00in /  0mm 0.0 W/m2
04:26 67.3 °F /  19.6 °C 31.3 °F /  -0.4 °C 29.70in /  1005.6hPa South 2.0mph /  3.2km/h 8.0mph /  12.9km/h 26% 0.00in /  0mm 0.0 W/m2
04:31 67.1 °F /  19.5 °C 32.0 °F /  0 °C 29.70in /  1005.6hPa SE 2.9mph /  4.7km/h 10.0mph /  16.1km/h 27% 0.00in /  0mm 0.0 W/m2
04:36 66.9 °F /  19.4 °C 30.9 °F /  -0.6 °C 29.70in /  1005.6hPa ESE 2.9mph /  4.7km/h 8.0mph /  12.9km/h 26% 0.00in /  0mm 0.0 W/m2
04:41 66.9 °F /  19.4 °C 30.9 °F /  -0.6 °C 29.70in /  1005.6hPa ESE 2.9mph /  4.7km/h 10.0mph /  16.1km/h 26% 0.00in /  0mm 0.0 W/m2
04:46 66.9 °F /  19.4 °C 30.0 °F /  -1.1 °C 29.70in /  1005.6hPa South 2.9mph /  4.7km/h 8.0mph /  12.9km/h 25% 0.00in /  0mm 0.0 W/m2
04:51 66.7 °F /  19.3 °C 29.8 °F /  -1.2 °C 29.70in /  1005.6hPa SSE 2.0mph /  3.2km/h 6.0mph /  9.7km/h 25% 0.00in /  0mm 0.0 W/m2
04:57 66.7 °F /  19.3 °C 25.5 °F /  -3.6 °C 29.70in /  1005.6hPa East 2.9mph /  4.7km/h 5.0mph /  8km/h 21% 0.00in /  0mm 0.0 W/m2
05:03 66.7 °F /  19.3 °C 23.2 °F /  -4.9 °C 29.71in /  1006hPa SSW 2.9mph /  4.7km/h 6.0mph /  9.7km/h 19% 0.00in /  0mm 0.0 W/m2
05:08 66.7 °F /  19.3 °C 20.5 °F /  -6.4 °C 29.71in /  1006hPa South 0.9mph /  1.4km/h 5.0mph /  8km/h 17% 0.00in /  0mm 0.0 W/m2
05:14 66.7 °F /  19.3 °C 17.6 °F /  -8 °C 29.71in /  1006hPa SSE 8.1mph /  13km/h 12.0mph /  19.3km/h 15% 0.00in /  0mm 0.0 W/m2
05:22 66.9 °F /  19.4 °C 16.2 °F /  -8.8 °C 29.71in /  1006hPa East 8.1mph /  13km/h 14.0mph /  22.5km/h 14% 0.00in /  0mm 0.0 W/m2
05:27 66.9 °F /  19.4 °C 14.5 °F /  -9.7 °C 29.71in /  1006hPa South 8.1mph /  13km/h 9.0mph /  14.5km/h 13% 0.00in /  0mm 0.0 W/m2
05:32 66.9 °F /  19.4 °C 14.5 °F /  -9.7 °C 29.72in /  1006.3hPa Calm   8.0mph /  12.9km/h 13% 0.00in /  0mm 0.0 W/m2
05:33 66.9 °F /  19.4 °C 14.5 °F /  -9.7 °C 29.72in /  1006.3hPa Calm   5.0mph /  8km/h 13% 0.00in /  0mm 0.0 W/m2
05:36 66.9 °F /  19.4 °C 12.6 °F /  -10.8 °C 29.72in /  1006.3hPa South 0.9mph /  1.4km/h 8.0mph /  12.9km/h 12% 0.00in /  0mm 0.0 W/m2
05:40 66.9 °F /  19.4 °C 12.6 °F /  -10.8 °C 29.72in /  1006.3hPa South 2.9mph /  4.7km/h 14.0mph /  22.5km/h 12% 0.00in /  0mm 0.0 W/m2
05:47 66.9 °F /  19.4 °C 12.6 °F /  -10.8 °C 29.72in /  1006.3hPa SSE 4.9mph /  7.9km/h 7.0mph /  11.3km/h 12% 0.00in /  0mm 0.0 W/m2
05:52 66.7 °F /  19.3 °C 12.6 °F /  -10.8 °C 29.73in /  1006.7hPa SE 2.0mph /  3.2km/h 2.0mph /  3.2km/h 12% 0.00in /  0mm 0.0 W/m2
05:57 66.7 °F /  19.3 °C 12.6 °F /  -10.8 °C 29.73in /  1006.7hPa Calm   7.0mph /  11.3km/h 12% 0.00in /  0mm 0.0 W/m2
06:02 66.7 °F /  19.3 °C 12.6 °F /  -10.8 °C 29.73in /  1006.7hPa Calm     12% 0.00in /  0mm 0.0 W/m2
06:07 66.6 °F /  19.2 °C 12.4 °F /  -10.9 °C 29.74in /  1007hPa Calm   2.0mph /  3.2km/h 12% 0.00in /  0mm 5.0 W/m2
06:12 66.2 °F /  19 °C 12.0 °F /  -11.1 °C 29.74in /  1007hPa WNW 0.9mph /  1.4km/h 4.0mph /  6.4km/h 12% 0.00in /  0mm 7.0 W/m2
06:17 66.0 °F /  18.9 °C 13.8 °F /  -10.1 °C 29.74in /  1007hPa NW 0.9mph /  1.4km/h 5.0mph /  8km/h 13% 0.00in /  0mm 9.0 W/m2
06:23 65.5 °F /  18.6 °C 13.3 °F /  -10.4 °C 29.75in /  1007.3hPa North 0.9mph /  1.4km/h 2.0mph /  3.2km/h 13% 0.00in /  0mm 11.0 W/m2
06:28 65.1 °F /  18.4 °C 11.3 °F /  -11.5 °C 29.75in /  1007.3hPa Calm   4.0mph /  6.4km/h 12% 0.00in /  0mm 12.0 W/m2
06:34 64.9 °F /  18.3 °C 11.1 °F /  -11.6 °C 29.75in /  1007.3hPa West 2.9mph /  4.7km/h 3.0mph /  4.8km/h 12% 0.00in /  0mm 14.0 W/m2
06:39 64.9 °F /  18.3 °C 11.1 °F /  -11.6 °C 29.75in /  1007.3hPa ENE 4.0mph /  6.4km/h 7.0mph /  11.3km/h 12% 0.00in /  0mm 16.0 W/m2
06:44 65.5 °F /  18.6 °C 11.5 °F /  -11.4 °C 29.75in /  1007.3hPa North 0.9mph /  1.4km/h 3.0mph /  4.8km/h 12% 0.00in /  0mm 18.0 W/m2
06:49 65.7 °F /  18.7 °C 9.7 °F /  -12.4 °C 29.75in /  1007.3hPa Calm   6.0mph /  9.7km/h 11% 0.00in /  0mm 19.0 W/m2
06:54 65.8 °F /  18.8 °C 9.9 °F /  -12.3 °C 29.75in /  1007.3hPa Calm   4.0mph /  6.4km/h 11% 0.00in /  0mm 19.0 W/m2
06:59 66.0 °F /  18.9 °C 10.0 °F /  -12.2 °C 29.75in /  1007.3hPa ESE 2.0mph /  3.2km/h 5.0mph /  8km/h 11% 0.00in /  0mm 21.0 W/m2
07:05 66.4 °F /  19.1 °C 10.2 °F /  -12.1 °C 29.76in /  1007.7hPa Calm   5.0mph /  8km/h 11% 0.00in /  0mm 23.0 W/m2
07:10 66.7 °F /  19.3 °C 8.4 °F /  -13.1 °C 29.76in /  1007.7hPa ENE 0.9mph /  1.4km/h 5.0mph /  8km/h 10% 0.00in /  0mm 25.0 W/m2
07:16 67.1 °F /  19.5 °C 8.6 °F /  -13 °C 29.75in /  1007.3hPa ESE 4.0mph /  6.4km/h 6.0mph /  9.7km/h 10% 0.00in /  0mm 25.0 W/m2
07:21 67.6 °F /  19.8 °C 11.3 °F /  -11.5 °C 29.76in /  1007.7hPa ESE 0.9mph /  1.4km/h 7.0mph /  11.3km/h 11% 0.00in /  0mm 26.0 W/m2
07:26 67.8 °F /  19.9 °C 11.3 °F /  -11.5 °C 29.76in /  1007.7hPa Calm   4.0mph /  6.4km/h 11% 0.00in /  0mm 26.0 W/m2
07:31 68.4 °F /  20.2 °C 9.7 °F /  -12.4 °C 29.76in /  1007.7hPa ENE 0.9mph /  1.4km/h 4.0mph /  6.4km/h 10% 0.00in /  0mm 53.0 W/m2
07:35 68.5 °F /  20.3 °C 11.8 °F /  -11.2 °C 29.76in /  1007.7hPa ESE 4.0mph /  6.4km/h 7.0mph /  11.3km/h 11% 0.00in /  0mm 172.0 W/m2
07:41 69.1 °F /  20.6 °C 12.4 °F /  -10.9 °C 29.76in /  1007.7hPa SE 6.9mph /  11.1km/h 7.0mph /  11.3km/h 11% 0.00in /  0mm 264.0 W/m2
07:46 69.6 °F /  20.9 °C 10.6 °F /  -11.9 °C 29.76in /  1007.7hPa SSE 4.9mph /  7.9km/h 11.0mph /  17.7km/h 10% 0.00in /  0mm 380.0 W/m2
07:51 70.3 °F /  21.3 °C 11.1 °F /  -11.6 °C 29.76in /  1007.7hPa SE 0.9mph /  1.4km/h 11.0mph /  17.7km/h 10% 0.00in /  0mm 403.0 W/m2
07:56 70.9 °F /  21.6 °C 11.7 °F /  -11.3 °C 29.76in /  1007.7hPa ESE 8.9mph /  14.3km/h 10.0mph /  16.1km/h 10% 0.00in /  0mm 424.0 W/m2
07:59 71.2 °F /  21.8 °C 11.8 °F /  -11.2 °C 29.76in /  1007.7hPa SE 2.9mph /  4.7km/h 8.0mph /  12.9km/h 10% 0.00in /  0mm 436.0 W/m2
08:05 71.8 °F /  22.1 °C 12.2 °F /  -11 °C 29.75in /  1007.3hPa SE 0.9mph /  1.4km/h 7.0mph /  11.3km/h 10% 0.00in /  0mm 457.0 W/m2
08:16 72.9 °F /  22.7 °C 13.1 °F /  -10.5 °C 29.75in /  1007.3hPa East 6.0mph /  9.7km/h 10.0mph /  16.1km/h 10% 0.00in /  0mm 503.0 W/m2
08:21 73.0 °F /  22.8 °C 13.3 °F /  -10.4 °C 29.76in /  1007.7hPa SE 2.9mph /  4.7km/h 9.0mph /  14.5km/h 10% 0.00in /  0mm 520.0 W/m2
08:26 73.2 °F /  22.9 °C 13.3 °F /  -10.4 °C 29.76in /  1007.7hPa ESE 4.0mph /  6.4km/h 9.0mph /  14.5km/h 10% 0.00in /  0mm 541.0 W/m2
08:31 73.6 °F /  23.1 °C 13.6 °F /  -10.2 °C 29.76in /  1007.7hPa SE 4.0mph /  6.4km/h 8.0mph /  12.9km/h 10% 0.00in /  0mm 561.0 W/m2
08:37 73.8 °F /  23.2 °C 13.8 °F /  -10.1 °C 29.75in /  1007.3hPa SE 6.0mph /  9.7km/h 9.0mph /  14.5km/h 10% 0.00in /  0mm 580.0 W/m2
08:42 74.3 °F /  23.5 °C 14.2 °F /  -9.9 °C 29.75in /  1007.3hPa ENE 2.9mph /  4.7km/h 11.0mph /  17.7km/h 10% 0.00in /  0mm 603.0 W/m2
08:48 74.7 °F /  23.7 °C 14.5 °F /  -9.7 °C 29.75in /  1007.3hPa Calm   7.0mph /  11.3km/h 10% 0.00in /  0mm 622.0 W/m2
08:53 75.0 °F /  23.9 °C 14.7 °F /  -9.6 °C 29.75in /  1007.3hPa ESE 6.9mph /  11.1km/h 9.0mph /  14.5km/h 10% 0.00in /  0mm 640.0 W/m2
08:58 75.6 °F /  24.2 °C 15.1 °F /  -9.4 °C 29.75in /  1007.3hPa ESE 6.9mph /  11.1km/h 8.0mph /  12.9km/h 10% 0.00in /  0mm 657.0 W/m2
09:03 75.9 °F /  24.4 °C 15.4 °F /  -9.2 °C 29.75in /  1007.3hPa SE 2.0mph /  3.2km/h 10.0mph /  16.1km/h 10% 0.00in /  0mm 677.0 W/m2
09:08 76.5 °F /  24.7 °C 15.8 °F /  -9 °C 29.75in /  1007.3hPa East 2.0mph /  3.2km/h 7.0mph /  11.3km/h 10% 0.00in /  0mm 694.0 W/m2
09:13 76.6 °F /  24.8 °C 16.0 °F /  -8.9 °C 29.75in /  1007.3hPa ESE 6.9mph /  11.1km/h 10.0mph /  16.1km/h 10% 0.00in /  0mm 714.0 W/m2
09:18 76.6 °F /  24.8 °C 13.6 °F /  -10.2 °C 29.75in /  1007.3hPa SE 4.0mph /  6.4km/h 12.0mph /  19.3km/h 9% 0.00in /  0mm 729.0 W/m2
09:23 76.6 °F /  24.8 °C 16.0 °F /  -8.9 °C 29.75in /  1007.3hPa ESE 8.9mph /  14.3km/h 9.0mph /  14.5km/h 10% 0.00in /  0mm 745.0 W/m2
09:29 77.2 °F /  25.1 °C 16.3 °F /  -8.7 °C 29.75in /  1007.3hPa East 8.9mph /  14.3km/h 12.0mph /  19.3km/h 10% 0.00in /  0mm 763.0 W/m2
09:34 77.4 °F /  25.2 °C 16.5 °F /  -8.6 °C 29.75in /  1007.3hPa NNE 6.0mph /  9.7km/h 11.0mph /  17.7km/h 10% 0.00in /  0mm 780.0 W/m2
09:39 77.5 °F /  25.3 °C 14.2 °F /  -9.9 °C 29.75in /  1007.3hPa NE 8.1mph /  13km/h 14.0mph /  22.5km/h 9% 0.00in /  0mm 795.0 W/m2
09:44 78.1 °F /  25.6 °C 17.1 °F /  -8.3 °C 29.75in /  1007.3hPa ENE 6.0mph /  9.7km/h 7.0mph /  11.3km/h 10% 0.00in /  0mm 809.0 W/m2
09:49 78.6 °F /  25.9 °C 15.1 °F /  -9.4 °C 29.75in /  1007.3hPa NE 6.9mph /  11.1km/h 15.0mph /  24.1km/h 9% 0.00in /  0mm 826.0 W/m2
09:54 79.2 °F /  26.2 °C 15.4 °F /  -9.2 °C 29.75in /  1007.3hPa ESE 8.1mph /  13km/h 9.0mph /  14.5km/h 9% 0.00in /  0mm 838.0 W/m2
09:59 79.3 °F /  26.3 °C 15.6 °F /  -9.1 °C 29.75in /  1007.3hPa ENE 2.9mph /  4.7km/h 5.0mph /  8km/h 9% 0.00in /  0mm 856.0 W/m2
10:04 79.7 °F /  26.5 °C 15.8 °F /  -9 °C 29.75in /  1007.3hPa NE 2.9mph /  4.7km/h 11.0mph /  17.7km/h 9% 0.00in /  0mm 865.0 W/m2
10:09 79.9 °F /  26.6 °C 16.0 °F /  -8.9 °C 29.75in /  1007.3hPa SSE 4.0mph /  6.4km/h 10.0mph /  16.1km/h 9% 0.00in /  0mm 884.0 W/m2
10:14 80.1 °F /  26.7 °C 16.2 °F /  -8.8 °C 29.75in /  1007.3hPa NE 4.9mph /  7.9km/h 13.0mph /  20.9km/h 9% 0.00in /  0mm 898.0 W/m2
10:19 80.1 °F /  26.7 °C 16.2 °F /  -8.8 °C 29.75in /  1007.3hPa NNE 0.9mph /  1.4km/h 12.0mph /  19.3km/h 9% 0.00in /  0mm 909.0 W/m2
10:25 80.1 °F /  26.7 °C 16.2 °F /  -8.8 °C 29.75in /  1007.3hPa East 4.0mph /  6.4km/h 14.0mph /  22.5km/h 9% 0.00in /  0mm 921.0 W/m2
10:30 80.1 °F /  26.7 °C 16.2 °F /  -8.8 °C 29.75in /  1007.3hPa ESE 4.9mph /  7.9km/h 12.0mph /  19.3km/h 9% 0.00in /  0mm 935.0 W/m2
10:36 80.6 °F /  27 °C 16.5 °F /  -8.6 °C 29.75in /  1007.3hPa SE 4.0mph /  6.4km/h 9.0mph /  14.5km/h 9% 0.00in /  0mm 949.0 W/m2
10:41 81.0 °F /  27.2 °C 16.9 °F /  -8.4 °C 29.75in /  1007.3hPa NE 2.9mph /  4.7km/h 10.0mph /  16.1km/h 9% 0.00in /  0mm 962.0 W/m2
10:46 81.7 °F /  27.6 °C 17.4 °F /  -8.1 °C 29.75in /  1007.3hPa SE 8.9mph /  14.3km/h 15.0mph /  24.1km/h 9% 0.00in /  0mm 970.0 W/m2
10:51 82.0 °F /  27.8 °C 17.6 °F /  -8 °C 29.75in /  1007.3hPa NE 2.0mph /  3.2km/h 11.0mph /  17.7km/h 9% 0.00in /  0mm 983.0 W/m2
10:56 82.6 °F /  28.1 °C 15.3 °F /  -9.3 °C 29.75in /  1007.3hPa NNE 4.0mph /  6.4km/h 11.0mph /  17.7km/h 8% 0.00in /  0mm 993.0 W/m2
11:01 82.8 °F /  28.2 °C 15.4 °F /  -9.2 °C 29.75in /  1007.3hPa ESE 8.1mph /  13km/h 10.0mph /  16.1km/h 8% 0.00in /  0mm 1004.0 W/m2
11:06 82.9 °F /  28.3 °C 15.6 °F /  -9.1 °C 29.74in /  1007hPa ESE 2.0mph /  3.2km/h 9.0mph /  14.5km/h 8% 0.00in /  0mm 1009.0 W/m2
11:11 83.5 °F /  28.6 °C 16.0 °F /  -8.9 °C 29.74in /  1007hPa East 8.1mph /  13km/h 10.0mph /  16.1km/h 8% 0.00in /  0mm 1018.0 W/m2
11:17 83.7 °F /  28.7 °C 16.2 °F /  -8.8 °C 29.74in /  1007hPa East 2.0mph /  3.2km/h 8.0mph /  12.9km/h 8% 0.00in /  0mm 1027.0 W/m2
11:22 84.0 °F /  28.9 °C 16.3 °F /  -8.7 °C 29.74in /  1007hPa NE 0.9mph /  1.4km/h 8.0mph /  12.9km/h 8% 0.00in /  0mm 1035.0 W/m2
11:28 84.6 °F /  29.2 °C 19.6 °F /  -6.9 °C 29.74in /  1007hPa East 2.9mph /  4.7km/h 11.0mph /  17.7km/h 9% 0.00in /  0mm 1042.0 W/m2
11:33 84.7 °F /  29.3 °C 16.9 °F /  -8.4 °C 29.74in /  1007hPa South 2.0mph /  3.2km/h 10.0mph /  16.1km/h 8% 0.00in /  0mm 1046.0 W/m2
11:38 84.9 °F /  29.4 °C 19.8 °F /  -6.8 °C 29.73in /  1006.7hPa ESE 6.0mph /  9.7km/h 8.0mph /  12.9km/h 9% 0.00in /  0mm 1053.0 W/m2
11:43 85.1 °F /  29.5 °C 17.2 °F /  -8.2 °C 29.73in /  1006.7hPa Calm   6.0mph /  9.7km/h 8% 0.00in /  0mm 1058.0 W/m2
11:48 85.6 °F /  29.8 °C 17.6 °F /  -8 °C 29.73in /  1006.7hPa East 6.0mph /  9.7km/h 12.0mph /  19.3km/h 8% 0.00in /  0mm 1067.0 W/m2
11:53 85.5 °F /  29.7 °C 17.4 °F /  -8.1 °C 29.73in /  1006.7hPa East 4.0mph /  6.4km/h 9.0mph /  14.5km/h 8% 0.00in /  0mm 1069.0 W/m2
11:59 85.6 °F /  29.8 °C 20.3 °F /  -6.5 °C 29.73in /  1006.7hPa ENE 2.0mph /  3.2km/h 7.0mph /  11.3km/h 9% 0.00in /  0mm 1071.0 W/m2
12:04 86.4 °F /  30.2 °C 20.8 °F /  -6.2 °C 29.73in /  1006.7hPa ESE 2.0mph /  3.2km/h 9.0mph /  14.5km/h 9% 0.00in /  0mm 1079.0 W/m2
12:09 86.5 °F /  30.3 °C 21.0 °F /  -6.1 °C 29.73in /  1006.7hPa ENE 12.1mph /  19.5km/h 12.1mph /  19.5km/h 9% 0.00in /  0mm 1079.0 W/m2
12:14 86.7 °F /  30.4 °C 18.3 °F /  -7.6 °C 29.72in /  1006.3hPa ENE 2.9mph /  4.7km/h 8.0mph /  12.9km/h 8% 0.00in /  0mm 1079.0 W/m2
12:19 86.7 °F /  30.4 °C 21.2 °F /  -6 °C 29.72in /  1006.3hPa ESE 2.0mph /  3.2km/h 8.0mph /  12.9km/h 9% 0.00in /  0mm 1083.0 W/m2
12:23 87.1 °F /  30.6 °C 21.4 °F /  -5.9 °C 29.72in /  1006.3hPa NE 2.0mph /  3.2km/h 9.0mph /  14.5km/h 9% 0.00in /  0mm 1083.0 W/m2
12:28 87.1 °F /  30.6 °C 21.4 °F /  -5.9 °C 29.71in /  1006hPa ESE 4.9mph /  7.9km/h 8.0mph /  12.9km/h 9% 0.00in /  0mm 1085.0 W/m2
12:33 86.9 °F /  30.5 °C 21.2 °F /  -6 °C 29.71in /  1006hPa NE 8.9mph /  14.3km/h 16.0mph /  25.7km/h 9% 0.00in /  0mm 1086.0 W/m2
12:38 86.7 °F /  30.4 °C 23.7 °F /  -4.6 °C 29.71in /  1006hPa ESE 6.9mph /  11.1km/h 12.0mph /  19.3km/h 10% 0.00in /  0mm 1081.0 W/m2
12:43 87.3 °F /  30.7 °C 24.1 °F /  -4.4 °C 29.71in /  1006hPa SE 4.9mph /  7.9km/h 9.0mph /  14.5km/h 10% 0.00in /  0mm 1067.0 W/m2
12:49 87.4 °F /  30.8 °C 24.3 °F /  -4.3 °C 29.71in /  1006hPa NE 4.9mph /  7.9km/h 8.0mph /  12.9km/h 10% 0.00in /  0mm 1069.0 W/m2
12:50 87.4 °F /  30.8 °C 21.7 °F /  -5.7 °C 29.71in /  1006hPa NNE 2.9mph /  4.7km/h 10.0mph /  16.1km/h 9% 0.00in /  0mm 1072.0 W/m2
12:55 87.6 °F /  30.9 °C 21.7 °F /  -5.7 °C 29.70in /  1005.6hPa NE 2.9mph /  4.7km/h 9.0mph /  14.5km/h 9% 0.00in /  0mm 1076.0 W/m2
13:00 88.2 °F /  31.2 °C 24.8 °F /  -4 °C 29.70in /  1005.6hPa Calm   11.0mph /  17.7km/h 10% 0.00in /  0mm 1078.0 W/m2
13:05 88.5 °F /  31.4 °C 22.5 °F /  -5.3 °C 29.70in /  1005.6hPa NNW 4.9mph /  7.9km/h 13.0mph /  20.9km/h 9% 0.00in /  0mm 1071.0 W/m2
13:10 88.5 °F /  31.4 °C 22.5 °F /  -5.3 °C 29.70in /  1005.6hPa ESE 2.9mph /  4.7km/h 8.0mph /  12.9km/h 9% 0.00in /  0mm 1069.0 W/m2
13:15 88.3 °F /  31.3 °C 22.3 °F /  -5.4 °C 29.70in /  1005.6hPa SE 4.9mph /  7.9km/h 6.0mph /  9.7km/h 9% 0.00in /  0mm 1069.0 W/m2
13:20 88.5 °F /  31.4 °C 22.5 °F /  -5.3 °C 29.69in /  1005.3hPa East 4.9mph /  7.9km/h 8.0mph /  12.9km/h 9% 0.00in /  0mm 1074.0 W/m2
13:25 88.5 °F /  31.4 °C 22.5 °F /  -5.3 °C 29.69in /  1005.3hPa Calm   10.0mph /  16.1km/h 9% 0.00in /  0mm 1067.0 W/m2
13:31 88.9 °F /  31.6 °C 25.3 °F /  -3.7 °C 29.69in /  1005.3hPa ESE 11.0mph /  17.7km/h 15.0mph /  24.1km/h 10% 0.00in /  0mm 1065.0 W/m2
13:35 89.2 °F /  31.8 °C 23.0 °F /  -5 °C 29.68in /  1005hPa North 8.1mph /  13km/h 14.0mph /  22.5km/h 9% 0.00in /  0mm 1060.0 W/m2
13:40 89.4 °F /  31.9 °C 23.2 °F /  -4.9 °C 29.68in /  1005hPa NE 2.0mph /  3.2km/h 7.0mph /  11.3km/h 9% 0.00in /  0mm 1055.0 W/m2
13:45 89.8 °F /  32.1 °C 23.4 °F /  -4.8 °C 29.68in /  1005hPa East 2.9mph /  4.7km/h 8.0mph /  12.9km/h 9% 0.00in /  0mm 1053.0 W/m2
13:50 90.1 °F /  32.3 °C 23.7 °F /  -4.6 °C 29.68in /  1005hPa East 10.1mph /  16.3km/h 10.1mph /  16.3km/h 9% 0.00in /  0mm 1042.0 W/m2
13:55 90.3 °F /  32.4 °C 23.9 °F /  -4.5 °C 29.68in /  1005hPa NNE 2.9mph /  4.7km/h 7.0mph /  11.3km/h 9% 0.00in /  0mm 1039.0 W/m2
14:00 90.7 °F /  32.6 °C 24.1 °F /  -4.4 °C 29.68in /  1005hPa NNE 2.0mph /  3.2km/h 8.0mph /  12.9km/h 9% 0.00in /  0mm 1032.0 W/m2
14:05 90.9 °F /  32.7 °C 21.4 °F /  -5.9 °C 29.68in /  1005hPa NNE 6.0mph /  9.7km/h 9.0mph /  14.5km/h 8% 0.00in /  0mm 1021.0 W/m2
14:10 90.3 °F /  32.4 °C 21.0 °F /  -6.1 °C 29.68in /  1005hPa NNW 0.9mph /  1.4km/h 9.0mph /  14.5km/h 8% 0.00in /  0mm 1016.0 W/m2
14:15 90.1 °F /  32.3 °C 23.7 °F /  -4.6 °C 29.67in /  1004.6hPa WSW 2.0mph /  3.2km/h 3.0mph /  4.8km/h 9% 0.00in /  0mm 1004.0 W/m2
14:20 90.0 °F /  32.2 °C 20.8 °F /  -6.2 °C 29.67in /  1004.6hPa ENE 4.9mph /  7.9km/h 5.0mph /  8km/h 8% 0.00in /  0mm 997.0 W/m2
14:26 90.0 °F /  32.2 °C 23.5 °F /  -4.7 °C 29.67in /  1004.6hPa ENE 0.9mph /  1.4km/h 10.0mph /  16.1km/h 9% 0.00in /  0mm 988.0 W/m2
14:31 90.3 °F /  32.4 °C 23.9 °F /  -4.5 °C 29.67in /  1004.6hPa NNW 10.1mph /  16.3km/h 11.0mph /  17.7km/h 9% 0.00in /  0mm 972.0 W/m2
14:36 90.5 °F /  32.5 °C 21.2 °F /  -6 °C 29.66in /  1004.3hPa NW 6.9mph /  11.1km/h 7.0mph /  11.3km/h 8% 0.00in /  0mm 965.0 W/m2
14:41 90.9 °F /  32.7 °C 24.3 °F /  -4.3 °C 29.66in /  1004.3hPa NNW 2.9mph /  4.7km/h 6.0mph /  9.7km/h 9% 0.00in /  0mm 956.0 W/m2
14:46 91.2 °F /  32.9 °C 21.7 °F /  -5.7 °C 29.66in /  1004.3hPa NW 2.9mph /  4.7km/h 5.0mph /  8km/h 8% 0.00in /  0mm 946.0 W/m2
14:51 91.6 °F /  33.1 °C 21.9 °F /  -5.6 °C 29.66in /  1004.3hPa ENE 0.9mph /  1.4km/h 5.0mph /  8km/h 8% 0.00in /  0mm 933.0 W/m2
14:56 91.8 °F /  33.2 °C 22.1 °F /  -5.5 °C 29.65in /  1003.9hPa SSE 4.9mph /  7.9km/h 9.0mph /  14.5km/h 8% 0.00in /  0mm 923.0 W/m2
15:01 91.6 °F /  33.1 °C 21.9 °F /  -5.6 °C 29.65in /  1003.9hPa ESE 8.1mph /  13km/h 8.1mph /  13km/h 8% 0.00in /  0mm 909.0 W/m2
15:06 91.6 °F /  33.1 °C 24.8 °F /  -4 °C 29.65in /  1003.9hPa SE 8.1mph /  13km/h 13.0mph /  20.9km/h 9% 0.00in /  0mm 889.0 W/m2
15:11 91.9 °F /  33.3 °C 22.3 °F /  -5.4 °C 29.65in /  1003.9hPa NW 2.9mph /  4.7km/h 12.0mph /  19.3km/h 8% 0.00in /  0mm 884.0 W/m2
15:17 92.1 °F /  33.4 °C 22.5 °F /  -5.3 °C 29.65in /  1003.9hPa NNE 6.9mph /  11.1km/h 13.0mph /  20.9km/h 8% 0.00in /  0mm 870.0 W/m2
15:22 91.9 °F /  33.3 °C 22.3 °F /  -5.4 °C 29.65in /  1003.9hPa NNE 6.0mph /  9.7km/h 12.0mph /  19.3km/h 8% 0.00in /  0mm 853.0 W/m2
15:27 91.9 °F /  33.3 °C 22.3 °F /  -5.4 °C 29.64in /  1003.6hPa West 0.9mph /  1.4km/h 3.0mph /  4.8km/h 8% 0.00in /  0mm 838.0 W/m2
15:32 91.6 °F /  33.1 °C 24.8 °F /  -4 °C 29.64in /  1003.6hPa North 2.9mph /  4.7km/h 6.0mph /  9.7km/h 9% 0.00in /  0mm 821.0 W/m2
15:37 91.9 °F /  33.3 °C 25.0 °F /  -3.9 °C 29.64in /  1003.6hPa SE 0.9mph /  1.4km/h 6.0mph /  9.7km/h 9% 0.00in /  0mm 812.0 W/m2
15:42 92.7 °F /  33.7 °C 25.5 °F /  -3.6 °C 29.63in /  1003.3hPa SSE 0.9mph /  1.4km/h 2.0mph /  3.2km/h 9% 0.00in /  0mm 791.0 W/m2
15:47 93.4 °F /  34.1 °C 23.4 °F /  -4.8 °C 29.63in /  1003.3hPa SSE 0.9mph /  1.4km/h 5.0mph /  8km/h 8% 0.00in /  0mm 775.0 W/m2
15:52 93.6 °F /  34.2 °C 23.4 °F /  -4.8 °C 29.62in /  1002.9hPa SSE 2.0mph /  3.2km/h 5.0mph /  8km/h 8% 0.00in /  0mm 761.0 W/m2
15:58 93.4 °F /  34.1 °C 23.4 °F /  -4.8 °C 29.62in /  1002.9hPa WNW 2.9mph /  4.7km/h 11.0mph /  17.7km/h 8% 0.00in /  0mm 745.0 W/m2
16:03 93.0 °F /  33.9 °C 23.0 °F /  -5 °C 29.62in /  1002.9hPa WSW 4.9mph /  7.9km/h 8.0mph /  12.9km/h 8% 0.00in /  0mm 728.0 W/m2
16:08 92.8 °F /  33.8 °C 23.0 °F /  -5 °C 29.62in /  1002.9hPa North 4.0mph /  6.4km/h 4.0mph /  6.4km/h 8% 0.00in /  0mm 712.0 W/m2
16:13 92.8 °F /  33.8 °C 23.0 °F /  -5 °C 29.62in /  1002.9hPa Calm   3.0mph /  4.8km/h 8% 0.00in /  0mm 691.0 W/m2
16:18 93.2 °F /  34 °C 23.2 °F /  -4.9 °C 29.62in /  1002.9hPa NW 2.0mph /  3.2km/h 6.0mph /  9.7km/h 8% 0.00in /  0mm 675.0 W/m2
16:23 93.6 °F /  34.2 °C 23.4 °F /  -4.8 °C 29.62in /  1002.9hPa WSW 2.9mph /  4.7km/h 7.0mph /  11.3km/h 8% 0.00in /  0mm 661.0 W/m2
16:24 93.6 °F /  34.2 °C 23.4 °F /  -4.8 °C 29.62in /  1002.9hPa Calm   5.0mph /  8km/h 8% 0.00in /  0mm 656.0 W/m2
16:29 93.9 °F /  34.4 °C 23.7 °F /  -4.6 °C 29.61in /  1002.6hPa WSW 2.9mph /  4.7km/h 5.0mph /  8km/h 8% 0.00in /  0mm 640.0 W/m2
16:34 94.1 °F /  34.5 °C 23.9 °F /  -4.5 °C 29.61in /  1002.6hPa Calm   6.0mph /  9.7km/h 8% 0.00in /  0mm 621.0 W/m2
16:40 94.3 °F /  34.6 °C 23.9 °F /  -4.5 °C 29.61in /  1002.6hPa NNW 4.9mph /  7.9km/h 5.0mph /  8km/h 8% 0.00in /  0mm 601.0 W/m2
16:45 93.9 °F /  34.4 °C 23.7 °F /  -4.6 °C 29.61in /  1002.6hPa WSW 2.0mph /  3.2km/h 6.0mph /  9.7km/h 8% 0.00in /  0mm 584.0 W/m2
16:50 94.1 °F /  34.5 °C 20.7 °F /  -6.3 °C 29.61in /  1002.6hPa NNE 2.0mph /  3.2km/h 4.0mph /  6.4km/h 7% 0.00in /  0mm 564.0 W/m2
16:55 94.3 °F /  34.6 °C 20.8 °F /  -6.2 °C 29.61in /  1002.6hPa SW 2.9mph /  4.7km/h 9.0mph /  14.5km/h 7% 0.00in /  0mm 547.0 W/m2
17:00 93.9 °F /  34.4 °C 23.7 °F /  -4.6 °C 29.61in /  1002.6hPa ESE 0.9mph /  1.4km/h 3.0mph /  4.8km/h 8% 0.00in /  0mm 526.0 W/m2
17:05 93.6 °F /  34.2 °C 23.4 °F /  -4.8 °C 29.61in /  1002.6hPa North 4.0mph /  6.4km/h 7.0mph /  11.3km/h 8% 0.00in /  0mm 512.0 W/m2
17:10 93.4 °F /  34.1 °C 23.4 °F /  -4.8 °C 29.60in /  1002.3hPa NE 0.9mph /  1.4km/h 6.0mph /  9.7km/h 8% 0.00in /  0mm 487.0 W/m2
17:15 92.8 °F /  33.8 °C 23.0 °F /  -5 °C 29.60in /  1002.3hPa NE 2.0mph /  3.2km/h 9.0mph /  14.5km/h 8% 0.00in /  0mm 469.0 W/m2
17:18 92.7 °F /  33.7 °C 22.8 °F /  -5.1 °C 29.60in /  1002.3hPa Calm   3.0mph /  4.8km/h 8% 0.00in /  0mm 457.0 W/m2
17:20 92.7 °F /  33.7 °C 22.8 °F /  -5.1 °C 29.60in /  1002.3hPa West 0.9mph /  1.4km/h 6.0mph /  9.7km/h 8% 0.00in /  0mm 448.0 W/m2
17:25 92.7 °F /  33.7 °C 22.8 °F /  -5.1 °C 29.60in /  1002.3hPa Calm   5.0mph /  8km/h 8% 0.00in /  0mm 429.0 W/m2
17:31 92.8 °F /  33.8 °C 23.0 °F /  -5 °C 29.60in /  1002.3hPa North 2.0mph /  3.2km/h 9.0mph /  14.5km/h 8% 0.00in /  0mm 410.0 W/m2
17:36 92.8 °F /  33.8 °C 23.0 °F /  -5 °C 29.60in /  1002.3hPa North 4.9mph /  7.9km/h 5.0mph /  8km/h 8% 0.00in /  0mm 390.0 W/m2
17:41 92.3 °F /  33.5 °C 22.5 °F /  -5.3 °C 29.60in /  1002.3hPa WNW 0.9mph /  1.4km/h 7.0mph /  11.3km/h 8% 0.00in /  0mm 371.0 W/m2
17:46 92.3 °F /  33.5 °C 22.5 °F /  -5.3 °C 29.60in /  1002.3hPa East 2.9mph /  4.7km/h 7.0mph /  11.3km/h 8% 0.00in /  0mm 350.0 W/m2
17:51 92.5 °F /  33.6 °C 22.6 °F /  -5.2 °C 29.60in /  1002.3hPa NNE 4.0mph /  6.4km/h 6.0mph /  9.7km/h 8% 0.00in /  0mm 330.0 W/m2
17:56 92.5 °F /  33.6 °C 22.6 °F /  -5.2 °C 29.61in /  1002.6hPa SSE 4.0mph /  6.4km/h 7.0mph /  11.3km/h 8% 0.00in /  0mm 309.0 W/m2
18:01 92.5 °F /  33.6 °C 22.6 °F /  -5.2 °C 29.60in /  1002.3hPa SSE 2.9mph /  4.7km/h 6.0mph /  9.7km/h 8% 0.00in /  0mm 288.0 W/m2
18:06 92.3 °F /  33.5 °C 22.5 °F /  -5.3 °C 29.60in /  1002.3hPa Calm   2.0mph /  3.2km/h 8% 0.00in /  0mm 269.0 W/m2
18:11 92.7 °F /  33.7 °C 22.8 °F /  -5.1 °C 29.60in /  1002.3hPa East 0.9mph /  1.4km/h 3.0mph /  4.8km/h 8% 0.00in /  0mm 246.0 W/m2
18:17 92.5 °F /  33.6 °C 22.6 °F /  -5.2 °C 29.61in /  1002.6hPa NNW 6.0mph /  9.7km/h 8.0mph /  12.9km/h 8% 0.00in /  0mm 227.0 W/m2
18:22 92.1 °F /  33.4 °C 22.5 °F /  -5.3 °C 29.61in /  1002.6hPa North 4.0mph /  6.4km/h 6.0mph /  9.7km/h 8% 0.00in /  0mm 206.0 W/m2
18:27 91.8 °F /  33.2 °C 22.1 °F /  -5.5 °C 29.61in /  1002.6hPa Calm   5.0mph /  8km/h 8% 0.00in /  0mm 172.0 W/m2
18:32 91.6 °F /  33.1 °C 21.9 °F /  -5.6 °C 29.61in /  1002.6hPa Calm   2.0mph /  3.2km/h 8% 0.00in /  0mm 139.0 W/m2
18:37 91.2 °F /  32.9 °C 24.4 °F /  -4.2 °C 29.61in /  1002.6hPa Calm   6.0mph /  9.7km/h 9% 0.00in /  0mm 44.0 W/m2
18:42 90.9 °F /  32.7 °C 24.3 °F /  -4.3 °C 29.62in /  1002.9hPa NE 4.0mph /  6.4km/h 6.0mph /  9.7km/h 9% 0.00in /  0mm 32.0 W/m2
18:47 90.1 °F /  32.3 °C 23.7 °F /  -4.6 °C 29.61in /  1002.6hPa NNE 4.9mph /  7.9km/h 9.0mph /  14.5km/h 9% 0.00in /  0mm 28.0 W/m2
18:52 89.4 °F /  31.9 °C 23.2 °F /  -4.9 °C 29.62in /  1002.9hPa ENE 2.0mph /  3.2km/h 7.0mph /  11.3km/h 9% 0.00in /  0mm 26.0 W/m2
18:57 88.9 °F /  31.6 °C 22.8 °F /  -5.1 °C 29.62in /  1002.9hPa NW 4.9mph /  7.9km/h 5.0mph /  8km/h 9% 0.00in /  0mm 23.0 W/m2
19:02 88.5 °F /  31.4 °C 22.5 °F /  -5.3 °C 29.62in /  1002.9hPa NW 2.0mph /  3.2km/h 3.0mph /  4.8km/h 9% 0.00in /  0mm 21.0 W/m2
19:08 88.2 °F /  31.2 °C 22.3 °F /  -5.4 °C 29.62in /  1002.9hPa Calm   2.0mph /  3.2km/h 9% 0.00in /  0mm 18.0 W/m2
19:13 88.0 °F /  31.1 °C 22.1 °F /  -5.5 °C 29.62in /  1002.9hPa NNW 0.9mph /  1.4km/h 3.0mph /  4.8km/h 9% 0.00in /  0mm 14.0 W/m2
19:18 87.4 °F /  30.8 °C 24.3 °F /  -4.3 °C 29.62in /  1002.9hPa Calm     10% 0.00in /  0mm 11.0 W/m2
19:23 87.3 °F /  30.7 °C 24.1 °F /  -4.4 °C 29.62in /  1002.9hPa Calm   1.0mph /  1.6km/h 10% 0.00in /  0mm 7.0 W/m2
19:28 86.9 °F /  30.5 °C 23.7 °F /  -4.6 °C 29.62in /  1002.9hPa Calm   1.0mph /  1.6km/h 10% 0.00in /  0mm 5.0 W/m2
19:29 86.7 °F /  30.4 °C 23.7 °F /  -4.6 °C 29.62in /  1002.9hPa Calm   1.0mph /  1.6km/h 10% 0.00in /  0mm 5.0 W/m2
19:35 86.2 °F /  30.1 °C 23.2 °F /  -4.9 °C 29.62in /  1002.9hPa Calm     10% 0.00in /  0mm 0.0 W/m2
19:40 85.6 °F /  29.8 °C 25.2 °F /  -3.8 °C 29.62in /  1002.9hPa ENE 0.9mph /  1.4km/h 2.0mph /  3.2km/h 11% 0.00in /  0mm 0.0 W/m2
19:45 85.1 °F /  29.5 °C 22.5 °F /  -5.3 °C 29.62in /  1002.9hPa Calm   4.0mph /  6.4km/h 10% 0.00in /  0mm 0.0 W/m2
19:51 84.6 °F /  29.2 °C 24.3 °F /  -4.3 °C 29.63in /  1003.3hPa SW 0.9mph /  1.4km/h 2.0mph /  3.2km/h 11% 0.00in /  0mm 0.0 W/m2
19:56 83.5 °F /  28.6 °C 32.5 °F /  0.3 °C 29.65in /  1003.9hPa South 4.9mph /  7.9km/h 10.0mph /  16.1km/h 16% 0.00in /  0mm 0.0 W/m2
20:01 82.2 °F /  27.9 °C 33.1 °F /  0.6 °C 29.65in /  1003.9hPa WSW 14.1mph /  22.7km/h 15.0mph /  24.1km/h 17% 0.00in /  0mm 0.0 W/m2
20:06 80.8 °F /  27.1 °C 34.7 °F /  1.5 °C 29.65in /  1003.9hPa SSW 8.1mph /  13km/h 12.0mph /  19.3km/h 19% 0.00in /  0mm 0.0 W/m2
20:11 79.5 °F /  26.4 °C 34.9 °F /  1.6 °C 29.65in /  1003.9hPa SSW 4.9mph /  7.9km/h 13.0mph /  20.9km/h 20% 0.00in /  0mm 0.0 W/m2
20:16 79.0 °F /  26.1 °C 34.5 °F /  1.4 °C 29.65in /  1003.9hPa WSW 8.1mph /  13km/h 15.0mph /  24.1km/h 20% 0.00in /  0mm 0.0 W/m2
20:21 78.4 °F /  25.8 °C 35.2 °F /  1.8 °C 29.66in /  1004.3hPa SW 4.0mph /  6.4km/h 10.0mph /  16.1km/h 21% 0.00in /  0mm 0.0 W/m2
20:26 78.1 °F /  25.6 °C 34.9 °F /  1.6 °C 29.66in /  1004.3hPa West 2.0mph /  3.2km/h 9.0mph /  14.5km/h 21% 0.00in /  0mm 0.0 W/m2
20:31 77.7 °F /  25.4 °C 35.8 °F /  2.1 °C 29.67in /  1004.6hPa WSW 2.0mph /  3.2km/h 5.0mph /  8km/h 22% 0.00in /  0mm 0.0 W/m2
20:36 77.4 °F /  25.2 °C 35.6 °F /  2 °C 29.67in /  1004.6hPa SSW 0.9mph /  1.4km/h 8.0mph /  12.9km/h 22% 0.00in /  0mm 0.0 W/m2
20:42 77.0 °F /  25 °C 35.2 °F /  1.8 °C 29.67in /  1004.6hPa West 2.0mph /  3.2km/h 9.0mph /  14.5km/h 22% 0.00in /  0mm 0.0 W/m2
20:47 76.6 °F /  24.8 °C 34.9 °F /  1.6 °C 29.67in /  1004.6hPa SW 2.9mph /  4.7km/h 4.0mph /  6.4km/h 22% 0.00in /  0mm 0.0 W/m2
20:52 76.5 °F /  24.7 °C 36.0 °F /  2.2 °C 29.67in /  1004.6hPa SW 4.0mph /  6.4km/h 8.0mph /  12.9km/h 23% 0.00in /  0mm 0.0 W/m2
20:57 76.3 °F /  24.6 °C 35.8 °F /  2.1 °C 29.68in /  1005hPa SW 4.0mph /  6.4km/h 4.0mph /  6.4km/h 23% 0.00in /  0mm 0.0 W/m2
21:02 76.1 °F /  24.5 °C 35.6 °F /  2 °C 29.68in /  1005hPa WSW 2.9mph /  4.7km/h 6.0mph /  9.7km/h 23% 0.00in /  0mm 0.0 W/m2
21:07 75.9 °F /  24.4 °C 35.4 °F /  1.9 °C 29.68in /  1005hPa West 0.9mph /  1.4km/h 8.0mph /  12.9km/h 23% 0.00in /  0mm 0.0 W/m2
21:12 75.7 °F /  24.3 °C 35.2 °F /  1.8 °C 29.68in /  1005hPa West 0.9mph /  1.4km/h 5.0mph /  8km/h 23% 0.00in /  0mm 0.0 W/m2
21:17 75.4 °F /  24.1 °C 36.1 °F /  2.3 °C 29.68in /  1005hPa WSW 0.9mph /  1.4km/h 6.0mph /  9.7km/h 24% 0.00in /  0mm 0.0 W/m2
21:22 75.4 °F /  24.1 °C 36.1 °F /  2.3 °C 29.68in /  1005hPa Calm   5.0mph /  8km/h 24% 0.00in /  0mm 0.0 W/m2
21:27 75.0 °F /  23.9 °C 35.8 °F /  2.1 °C 29.68in /  1005hPa Calm   6.0mph /  9.7km/h 24% 0.00in /  0mm 0.0 W/m2
21:33 74.8 °F /  23.8 °C 35.6 °F /  2 °C 29.69in /  1005.3hPa NNW 2.0mph /  3.2km/h 3.0mph /  4.8km/h 24% 0.00in /  0mm 0.0 W/m2
21:38 74.7 °F /  23.7 °C 36.5 °F /  2.5 °C 29.69in /  1005.3hPa Calm     25% 0.00in /  0mm 0.0 W/m2
21:43 74.5 °F /  23.6 °C 36.3 °F /  2.4 °C 29.69in /  1005.3hPa Calm   1.0mph /  1.6km/h 25% 0.00in /  0mm 0.0 W/m2
21:48 74.3 °F /  23.5 °C 36.1 °F /  2.3 °C 29.70in /  1005.6hPa Calm   4.0mph /  6.4km/h 25% 0.00in /  0mm 0.0 W/m2
21:53 74.1 °F /  23.4 °C 36.0 °F /  2.2 °C 29.70in /  1005.6hPa Calm   2.0mph /  3.2km/h 25% 0.00in /  0mm 0.0 W/m2
21:58 73.8 °F /  23.2 °C 35.8 °F /  2.1 °C 29.70in /  1005.6hPa Calm   3.0mph /  4.8km/h 25% 0.00in /  0mm 0.0 W/m2
22:03 73.6 °F /  23.1 °C 36.5 °F /  2.5 °C 29.70in /  1005.6hPa SW 4.9mph /  7.9km/h 7.0mph /  11.3km/h 26% 0.00in /  0mm 0.0 W/m2
22:08 73.4 °F /  23 °C 36.5 °F /  2.5 °C 29.71in /  1006hPa SW 2.9mph /  4.7km/h 6.0mph /  9.7km/h 26% 0.00in /  0mm 0.0 W/m2
22:13 73.0 °F /  22.8 °C 36.1 °F /  2.3 °C 29.71in /  1006hPa Calm   3.0mph /  4.8km/h 26% 0.00in /  0mm 0.0 W/m2
22:19 72.9 °F /  22.7 °C 36.9 °F /  2.7 °C 29.71in /  1006hPa West 0.9mph /  1.4km/h 4.0mph /  6.4km/h 27% 0.00in /  0mm 0.0 W/m2
22:24 72.7 °F /  22.6 °C 36.9 °F /  2.7 °C 29.72in /  1006.3hPa Calm   3.0mph /  4.8km/h 27% 0.00in /  0mm 0.0 W/m2
22:29 72.3 °F /  22.4 °C 36.5 °F /  2.5 °C 29.72in /  1006.3hPa Calm   3.0mph /  4.8km/h 27% 0.00in /  0mm 0.0 W/m2
22:34 72.1 °F /  22.3 °C 36.3 °F /  2.4 °C 29.72in /  1006.3hPa Calm   2.0mph /  3.2km/h 27% 0.00in /  0mm 0.0 W/m2
22:39 72.0 °F /  22.2 °C 36.1 °F /  2.3 °C 29.72in /  1006.3hPa Calm   3.0mph /  4.8km/h 27% 0.00in /  0mm 0.0 W/m2
22:44 71.8 °F /  22.1 °C 36.9 °F /  2.7 °C 29.73in /  1006.7hPa Calm   1.0mph /  1.6km/h 28% 0.00in /  0mm 0.0 W/m2
22:49 71.6 °F /  22 °C 36.7 °F /  2.6 °C 29.73in /  1006.7hPa Calm     28% 0.00in /  0mm 0.0 W/m2
22:54 71.4 °F /  21.9 °C 36.7 °F /  2.6 °C 29.73in /  1006.7hPa Calm   2.0mph /  3.2km/h 28% 0.00in /  0mm 0.0 W/m2
23:00 71.2 °F /  21.8 °C 36.5 °F /  2.5 °C 29.73in /  1006.7hPa NW 0.9mph /  1.4km/h 2.0mph /  3.2km/h 28% 0.00in /  0mm 0.0 W/m2
23:05 71.1 °F /  21.7 °C 36.3 °F /  2.4 °C 29.73in /  1006.7hPa Calm   1.0mph /  1.6km/h 28% 0.00in /  0mm 0.0 W/m2
23:10 71.1 °F /  21.7 °C 36.3 °F /  2.4 °C 29.73in /  1006.7hPa Calm     28% 0.00in /  0mm 0.0 W/m2
23:15 70.9 °F /  21.6 °C 37.0 °F /  2.8 °C 29.73in /  1006.7hPa Calm   3.0mph /  4.8km/h 29% 0.00in /  0mm 0.0 W/m2
23:20 70.5 °F /  21.4 °C 36.7 °F /  2.6 °C 29.73in /  1006.7hPa Calm   1.0mph /  1.6km/h 29% 0.00in /  0mm 0.0 W/m2
23:25 70.5 °F /  21.4 °C 36.7 °F /  2.6 °C 29.73in /  1006.7hPa Calm   1.0mph /  1.6km/h 29% 0.00in /  0mm 0.0 W/m2
23:30 70.3 °F /  21.3 °C 36.5 °F /  2.5 °C 29.73in /  1006.7hPa Calm   1.0mph /  1.6km/h 29% 0.00in /  0mm 0.0 W/m2
23:36 70.2 °F /  21.2 °C 36.5 °F /  2.5 °C 29.73in /  1006.7hPa SSW 0.9mph /  1.4km/h 7.0mph /  11.3km/h 29% 0.00in /  0mm 0.0 W/m2
23:41 70.2 °F /  21.2 °C 36.5 °F /  2.5 °C 29.73in /  1006.7hPa SSW 0.9mph /  1.4km/h 3.0mph /  4.8km/h 29% 0.00in /  0mm 0.0 W/m2
23:46 70.2 °F /  21.2 °C 36.5 °F /  2.5 °C 29.74in /  1007hPa Calm   3.0mph /  4.8km/h 29% 0.00in /  0mm 0.0 W/m2
23:52 70.0 °F /  21.1 °C 36.3 °F /  2.4 °C 29.73in /  1006.7hPa Calm   1.0mph /  1.6km/h 29% 0.00in /  0mm 0.0 W/m2
23:57 70.0 °F /  21.1 °C 36.3 °F /  2.4 °C 29.73in /  1006.7hPa Calm   1.0mph /  1.6km/h 29% 0.00in /  0mm 0.0 W/m2
Olympia, Windhoek, Namibia
Compliments of Weather Underground - 3.25 mb